Etusivu
METAR-TAF:

METAR-TAF

Lentoasemat :

Tozeur, Tunisia

Leveyspiiri: 33-55N, Pituuspiiri: 008-06E, korkeus merenpinnasta: 87 m

Tämänhetkinen sää

Tämä raportti tehtiin 27 minuuttia sitten, kello 03.00 UTC
Tuuli 13 kn lännestä/luoteesta
Lämpötila 10°C
Kosteus 53%
Ilmanpaine 1017 hPa
Näkyvyys 10 km tai enemmän
Muutamia pilviä 3000 ft:n korkeudessa

METAR: DTTZ 110300Z 30013KT 9999 FEW030 10/01 Q1017

Aika: 04:27 (03:27 UTC)

Sääennuste

Tämä raportti tehtiin 4 tuntia ja 27 minuuttia sitten, kello 23.00 UTC
Ennuste voimassa 11. päivästä klo 00 UTC - 11. päivään klo 24 UTC
Tuuli 15 kn pohjoisen/luoteesta
Näkyvyys: 8000 m
Hajanaisia pilviä 3000 ft:n korkeudessa
Todennäköisyys 30% :
Ajoittain
11. päivästä klo 00 UTC - 11. päivään klo 06 UTC
Tuuli 15 kn pohjoisen/luoteesta puuskistuen 25 kn:hen

TAF: DTTZ 102300Z 1100/1124 34015KT 8000 SCT030 PROB30 TEMPO 1100/1106 34015G25KT

Säähavainnot ja -ennusteet yli 4000 lentoasemalta (METAR- ja TAF-raportit).

Käytössä olevat sääasemat on merkitty karttaan keltaisilla ja punaisilla pisteillä.

Aseta hiiri pisteen päälle nähdäksesi sääaseman nimen.

Klikkaa sitten nähdäksesi säähavainnot ja -ennusteet.

Kartan vaihtaminen: klikkaa mustalla rastilla varustettuja vihreitä pisteitä, niin voit zoomata sisään; viivalla varustettua vihreää pistettä, niin voit zoomata ulos tai vihreitä nuolia, niin pääset viereisille kartoille.


METAR-TAF: